createdAt,value
2022-09-06T00:00:25.278Z,9.00
2022-09-06T00:02:52.780Z,9.00
2022-09-06T00:05:20.882Z,9.00
2022-09-06T00:07:48.400Z,9.10
2022-09-06T00:10:16.253Z,9.10
2022-09-06T00:12:43.782Z,9.10
2022-09-06T00:15:11.716Z,9.00
2022-09-06T00:17:39.218Z,9.00
2022-09-06T00:20:09.403Z,9.10
2022-09-06T00:22:37.674Z,9.20
2022-09-06T00:25:06.520Z,9.10
2022-09-06T00:27:35.132Z,9.10
2022-09-06T00:30:04.837Z,9.20
2022-09-06T00:32:33.059Z,9.20
2022-09-06T00:35:00.607Z,9.10
2022-09-06T00:37:28.036Z,9.20
2022-09-06T00:39:55.503Z,9.20
2022-09-06T00:42:23.106Z,9.10
2022-09-06T00:44:50.981Z,9.20
2022-09-06T00:47:19.378Z,9.20
2022-09-06T00:49:51.491Z,9.20
2022-09-06T00:52:20.019Z,9.20
2022-09-06T00:54:50.223Z,9.10
2022-09-06T00:57:18.950Z,9.20
2022-09-06T00:59:48.181Z,9.10
2022-09-06T01:02:15.760Z,9.10
2022-09-06T01:04:45.650Z,9.20
2022-09-06T01:07:35.780Z,9.10
2022-09-06T01:10:21.360Z,9.10
2022-09-06T01:12:58.806Z,9.00
2022-09-06T01:16:09.468Z,9.00
2022-09-06T01:18:48.971Z,8.90
2022-09-06T01:21:25.226Z,8.90
2022-09-06T01:24:17.691Z,8.90
2022-09-06T01:27:12.943Z,8.80
2022-09-06T01:29:53.138Z,8.80
2022-09-06T01:32:51.706Z,8.90
2022-09-06T01:35:42.484Z,8.90
2022-09-06T01:38:10.742Z,8.90
2022-09-06T01:40:38.254Z,8.80
2022-09-06T01:43:11.114Z,8.80
2022-09-06T01:46:03.290Z,8.80
2022-09-06T01:48:39.759Z,8.80
2022-09-06T01:51:10.153Z,8.70
2022-09-06T01:54:14.494Z,8.80
2022-09-06T01:57:00.587Z,8.70
2022-09-06T02:00:02.314Z,8.70
2022-09-06T02:02:40.928Z,8.70
2022-09-06T02:05:48.628Z,8.60
2022-09-06T02:08:28.364Z,8.60
2022-09-06T02:11:00.538Z,8.60
2022-09-06T02:13:33.358Z,8.60
2022-09-06T02:16:06.713Z,8.50
2022-09-06T02:18:44.022Z,8.50
2022-09-06T02:21:14.995Z,8.40
2022-09-06T02:23:43.686Z,8.40
2022-09-06T02:26:18.905Z,8.40
2022-09-06T02:28:46.678Z,8.40
2022-09-06T02:31:24.265Z,8.30
2022-09-06T02:33:52.078Z,8.30
2022-09-06T02:36:20.140Z,8.30
2022-09-06T02:38:48.101Z,8.30
2022-09-06T02:41:19.646Z,8.40
2022-09-06T02:43:47.119Z,8.40
2022-09-06T02:46:15.183Z,8.30
2022-09-06T02:48:42.713Z,8.40
2022-09-06T02:51:10.416Z,8.30
2022-09-06T02:53:38.176Z,8.30
2022-09-06T02:56:05.866Z,8.30
2022-09-06T02:58:33.334Z,8.20
2022-09-06T03:01:00.796Z,8.20
2022-09-06T03:03:28.804Z,8.20
2022-09-06T03:05:56.723Z,8.20
2022-09-06T03:08:26.531Z,8.10
2022-09-06T03:10:57.062Z,8.10
2022-09-06T03:13:25.135Z,8.10
2022-09-06T03:15:54.455Z,8.00
2022-09-06T03:18:22.679Z,8.00
2022-09-06T03:20:51.223Z,8.00
2022-09-06T03:23:20.176Z,8.00
2022-09-06T03:25:47.759Z,8.00
2022-09-06T03:28:15.694Z,7.90
2022-09-06T03:30:45.776Z,7.90
2022-09-06T03:33:13.436Z,7.90
2022-09-06T03:35:42.053Z,7.90
2022-09-06T03:38:09.590Z,7.90
2022-09-06T03:40:37.046Z,7.80
2022-09-06T03:43:04.481Z,7.80
2022-09-06T03:45:31.985Z,7.80
2022-09-06T03:47:59.471Z,7.90
2022-09-06T03:50:26.883Z,7.90
2022-09-06T03:52:54.281Z,7.80
2022-09-06T03:55:21.696Z,7.80
2022-09-06T03:57:49.188Z,7.70
2022-09-06T04:00:16.827Z,7.70
2022-09-06T04:02:44.347Z,7.70
2022-09-06T04:05:13.474Z,7.80
2022-09-06T04:07:42.693Z,7.90
2022-09-06T04:10:10.350Z,7.90
2022-09-06T04:12:39.422Z,8.00
2022-09-06T04:15:07.336Z,8.00
2022-09-06T04:17:34.832Z,7.90
2022-09-06T04:20:03.054Z,8.00
2022-09-06T04:22:30.982Z,8.00
2022-09-06T04:24:58.489Z,8.00
2022-09-06T04:27:25.939Z,8.00
2022-09-06T04:29:53.514Z,8.00
2022-09-06T04:32:20.978Z,7.90
2022-09-06T04:34:48.486Z,8.00
2022-09-06T04:37:20.050Z,8.00
2022-09-06T04:39:47.881Z,8.10
2022-09-06T04:42:15.622Z,8.10
2022-09-06T04:44:43.066Z,8.10
2022-09-06T04:47:15.533Z,8.10
2022-09-06T04:49:43.381Z,8.20
2022-09-06T04:52:11.935Z,8.40
2022-09-06T04:54:39.574Z,8.50
2022-09-06T04:57:07.095Z,8.60
2022-09-06T04:59:34.719Z,8.70
2022-09-06T05:02:02.221Z,8.80
2022-09-06T05:04:29.721Z,9.00
2022-09-06T05:07:05.125Z,9.20
2022-09-06T05:09:33.721Z,9.30
2022-09-06T05:12:02.019Z,9.40
2022-09-06T05:14:29.870Z,9.50
2022-09-06T05:16:57.465Z,9.70
2022-09-06T05:19:25.057Z,9.90
2022-09-06T05:21:53.023Z,10.00
2022-09-06T05:24:21.038Z,10.10
2022-09-06T05:26:48.539Z,10.20
2022-09-06T05:29:16.032Z,10.20
2022-09-06T05:31:43.532Z,10.40
2022-09-06T05:34:13.527Z,10.50
2022-09-06T05:36:42.146Z,10.70
2022-09-06T05:39:09.649Z,10.80
2022-09-06T05:41:37.148Z,10.80
2022-09-06T05:44:04.713Z,10.70
2022-09-06T05:46:32.230Z,10.90
2022-09-06T05:49:04.813Z,10.90
2022-09-06T05:51:32.924Z,10.90
2022-09-06T05:54:00.540Z,11.00
2022-09-06T05:56:28.019Z,11.10
2022-09-06T05:58:55.701Z,11.20
2022-09-06T06:01:26.674Z,11.10
2022-09-06T06:03:59.044Z,11.00
2022-09-06T06:06:29.252Z,10.90
2022-09-06T06:08:57.012Z,11.00
2022-09-06T06:11:26.366Z,11.10
2022-09-06T06:13:54.379Z,11.10
2022-09-06T06:16:23.075Z,11.20
2022-09-06T06:18:52.571Z,11.20
2022-09-06T06:21:25.342Z,11.30
2022-09-06T06:23:55.553Z,11.30
2022-09-06T06:26:23.649Z,11.30
2022-09-06T06:28:51.783Z,11.30
2022-09-06T06:31:21.343Z,11.30
2022-09-06T06:33:49.188Z,11.30
2022-09-06T06:36:16.552Z,11.30
2022-09-06T06:38:45.706Z,11.40
2022-09-06T06:41:15.810Z,11.40
2022-09-06T06:43:43.640Z,11.40
2022-09-06T06:46:13.780Z,11.50
2022-09-06T06:48:43.505Z,11.60
2022-09-06T06:51:13.095Z,11.90
2022-09-06T06:53:40.717Z,12.10
2022-09-06T06:56:38.476Z,12.30
2022-09-06T06:59:07.942Z,12.50
2022-09-06T07:01:36.802Z,12.70
2022-09-06T07:04:05.468Z,12.80
2022-09-06T07:12:25.981Z,13.20
2022-09-06T07:14:53.519Z,13.30
2022-09-06T07:17:21.073Z,13.50
2022-09-06T07:22:35.861Z,14.00
2022-09-06T07:25:04.691Z,14.10
2022-09-06T07:27:48.490Z,14.30
2022-09-06T07:30:17.100Z,14.60
2022-09-06T07:32:44.566Z,14.80
2022-09-06T07:35:14.087Z,15.00
2022-09-06T07:37:41.681Z,15.10
2022-09-06T07:40:10.462Z,15.10
2022-09-06T07:42:38.200Z,15.10
2022-09-06T07:45:06.109Z,15.10
2022-09-06T07:53:13.830Z,15.40
2022-09-06T07:55:47.421Z,15.30
2022-09-06T07:58:15.384Z,15.40
2022-09-06T08:00:43.147Z,15.40
2022-09-06T08:03:10.629Z,15.40
2022-09-06T08:11:14.250Z,15.20
2022-09-06T08:13:42.527Z,15.20
2022-09-06T08:16:11.921Z,15.30
2022-09-06T08:18:39.612Z,15.30
2022-09-06T08:21:12.439Z,15.40
2022-09-06T08:23:44.250Z,15.50
2022-09-06T08:26:12.270Z,15.60
2022-09-06T08:28:39.820Z,15.70
2022-09-06T08:31:15.732Z,15.70
2022-09-06T08:33:44.550Z,15.90
2022-09-06T08:36:12.339Z,16.10
2022-09-06T08:38:40.122Z,16.10
2022-09-06T08:41:10.310Z,16.30
2022-09-06T08:43:38.995Z,16.50
2022-09-06T08:46:08.751Z,16.70
2022-09-06T08:48:39.920Z,16.80
2022-09-06T08:51:10.402Z,16.90
2022-09-06T08:53:44.627Z,16.70
2022-09-06T08:56:28.610Z,16.60
2022-09-06T08:59:12.478Z,16.60
2022-09-06T09:02:04.217Z,16.50
2022-09-06T09:04:35.211Z,16.40
2022-09-06T09:07:30.665Z,16.50
2022-09-06T09:09:59.852Z,16.50
2022-09-06T09:12:30.467Z,16.60
2022-09-06T09:15:05.543Z,16.60
2022-09-06T09:17:35.560Z,16.80
2022-09-06T09:20:04.122Z,16.90
2022-09-06T09:22:31.822Z,16.90
2022-09-06T09:25:00.182Z,17.20
2022-09-06T09:27:29.016Z,17.30
2022-09-06T09:32:50.187Z,17.50
2022-09-06T09:35:26.340Z,17.40
2022-09-06T09:38:19.387Z,17.40
2022-09-06T09:40:56.801Z,17.40
2022-09-06T09:43:32.549Z,17.40
2022-09-06T09:46:34.671Z,17.60
2022-09-06T09:49:02.144Z,17.80
2022-09-06T09:51:31.201Z,17.80
2022-09-06T09:54:01.015Z,17.80
2022-09-06T09:56:43.617Z,17.80
2022-09-06T09:59:46.011Z,17.90
2022-09-06T10:02:18.830Z,18.00
2022-09-06T10:04:50.045Z,18.20
2022-09-06T10:07:23.249Z,18.10
2022-09-06T10:10:10.967Z,18.00
2022-09-06T10:12:41.143Z,17.80
2022-09-06T10:15:31.477Z,17.70
2022-09-06T10:17:59.096Z,17.70
2022-09-06T10:20:47.215Z,17.60
2022-09-06T10:26:39.241Z,17.60
2022-09-06T10:29:11.838Z,17.80
2022-09-06T10:31:50.955Z,18.10
2022-09-06T10:34:21.173Z,18.50
2022-09-06T10:37:36.786Z,18.60
2022-09-06T10:40:08.983Z,18.30
2022-09-06T10:42:45.654Z,18.10
2022-09-06T10:45:33.341Z,18.00
2022-09-06T10:48:17.947Z,18.10
2022-09-06T10:51:00.361Z,18.40
2022-09-06T10:53:44.382Z,18.50
2022-09-06T10:56:17.138Z,18.60
2022-09-06T11:02:09.970Z,18.70
2022-09-06T11:07:32.202Z,19.20
2022-09-06T11:10:09.825Z,19.90
2022-09-06T11:13:00.463Z,19.90
2022-09-06T11:15:34.456Z,19.70
2022-09-06T11:18:15.536Z,19.50
2022-09-06T11:21:03.182Z,19.50
2022-09-06T11:23:50.603Z,19.30
2022-09-06T11:26:42.497Z,19.10
2022-09-06T11:29:18.962Z,19.50
2022-09-06T11:32:25.514Z,19.20
2022-09-06T11:34:58.091Z,21.10
2022-09-06T11:37:28.175Z,23.80
2022-09-06T11:42:53.108Z,25.20
2022-09-06T11:45:39.425Z,26.10
2022-09-06T11:48:27.342Z,26.10
2022-09-06T11:50:55.035Z,26.70
2022-09-06T11:53:25.806Z,28.20
2022-09-06T11:56:02.555Z,27.10
2022-09-06T11:58:41.748Z,26.30
2022-09-06T12:01:16.735Z,26.50
2022-09-06T12:04:09.225Z,27.60
2022-09-06T12:06:40.946Z,28.20
2022-09-06T12:09:34.576Z,26.60
2022-09-06T12:12:02.914Z,25.00
2022-09-06T12:14:42.839Z,23.40
2022-09-06T12:17:11.571Z,22.00
2022-09-06T12:19:45.216Z,20.90
2022-09-06T12:22:28.006Z,20.20
2022-09-06T12:25:07.046Z,20.00
2022-09-06T12:27:40.185Z,19.70
2022-09-06T12:30:11.921Z,19.30
2022-09-06T12:32:50.277Z,19.00
2022-09-06T12:38:24.255Z,18.80
2022-09-06T12:40:56.514Z,21.00
2022-09-06T12:43:24.571Z,22.00
2022-09-06T12:45:53.011Z,22.60
2022-09-06T12:48:36.003Z,24.30
2022-09-06T12:51:05.888Z,25.30
2022-09-06T12:53:34.976Z,26.70
2022-09-06T12:56:08.114Z,27.00
2022-09-06T12:58:36.703Z,27.40
2022-09-06T13:01:31.161Z,28.00
2022-09-06T13:04:20.359Z,28.60
2022-09-06T13:06:49.208Z,28.60
2022-09-06T13:09:20.819Z,29.20
2022-09-06T13:11:52.206Z,29.60
2022-09-06T13:14:27.825Z,30.30
2022-09-06T13:16:59.374Z,30.40
2022-09-06T13:19:32.733Z,29.50
2022-09-06T13:22:01.217Z,29.50
2022-09-06T13:24:37.424Z,29.60
2022-09-06T13:27:31.755Z,30.00
2022-09-06T13:30:06.893Z,29.80
2022-09-06T13:32:35.420Z,30.10
2022-09-06T13:35:03.915Z,30.30
2022-09-06T13:37:34.130Z,31.10
2022-09-06T13:40:05.614Z,31.00
2022-09-06T13:42:37.342Z,30.80
2022-09-06T13:45:30.186Z,30.70
2022-09-06T13:48:13.017Z,30.80
2022-09-06T13:50:45.222Z,31.30
2022-09-06T13:53:18.902Z,31.30
2022-09-06T13:55:46.467Z,31.00
2022-09-06T13:58:13.866Z,31.10
2022-09-06T14:00:41.467Z,31.50
2022-09-06T14:03:11.834Z,31.60
2022-09-06T14:05:39.854Z,31.40
2022-09-06T14:08:08.514Z,31.10
2022-09-06T14:10:36.357Z,30.80
2022-09-06T14:13:04.448Z,30.80
2022-09-06T14:15:31.945Z,31.00
2022-09-06T14:17:59.512Z,31.00
2022-09-06T14:20:28.288Z,30.70
2022-09-06T14:22:55.734Z,30.60
2022-09-06T14:25:23.172Z,30.80
2022-09-06T14:27:51.143Z,30.80
2022-09-06T14:30:18.635Z,30.70
2022-09-06T14:32:46.115Z,30.80
2022-09-06T14:35:13.717Z,30.60
2022-09-06T14:37:41.207Z,30.50
2022-09-06T14:40:26.990Z,30.60
2022-09-06T14:42:54.644Z,30.60
2022-09-06T14:45:22.046Z,30.90
2022-09-06T14:47:49.549Z,30.60
2022-09-06T14:50:17.170Z,30.60
2022-09-06T14:52:44.722Z,30.00
2022-09-06T14:55:12.269Z,29.90
2022-09-06T14:57:39.749Z,29.20
2022-09-06T15:00:11.301Z,28.90
2022-09-06T15:02:39.418Z,28.90
2022-09-06T15:05:07.467Z,28.60
2022-09-06T15:07:35.410Z,28.60
2022-09-06T15:10:06.280Z,28.30
2022-09-06T15:12:33.669Z,28.30
2022-09-06T15:15:01.345Z,28.10
2022-09-06T15:17:28.791Z,28.20
2022-09-06T15:19:56.394Z,28.20
2022-09-06T15:22:23.919Z,27.90
2022-09-06T15:24:51.601Z,27.20
2022-09-06T15:27:19.086Z,26.60
2022-09-06T15:29:46.530Z,26.60
2022-09-06T15:32:14.046Z,26.30
2022-09-06T15:34:41.561Z,26.10
2022-09-06T15:37:09.159Z,26.30
2022-09-06T15:39:36.796Z,26.30
2022-09-06T15:42:04.580Z,26.20
2022-09-06T15:44:32.148Z,25.80
2022-09-06T15:46:59.725Z,25.60
2022-09-06T15:49:31.948Z,25.70
2022-09-06T15:52:02.050Z,25.50
2022-09-06T15:54:48.481Z,25.40
2022-09-06T15:57:16.982Z,25.20
2022-09-06T15:59:44.613Z,24.90
2022-09-06T16:02:12.217Z,24.70
2022-09-06T16:04:40.423Z,24.30
2022-09-06T16:07:08.122Z,24.00
2022-09-06T16:09:35.610Z,23.60
2022-09-06T16:12:03.334Z,23.60
2022-09-06T16:14:30.966Z,23.50
2022-09-06T16:16:58.545Z,23.30
2022-09-06T16:19:26.298Z,22.90
2022-09-06T16:21:53.913Z,22.70
2022-09-06T16:24:21.547Z,22.20
2022-09-06T16:26:49.108Z,21.60
2022-09-06T16:29:18.410Z,21.20
2022-09-06T16:31:46.800Z,20.70
2022-09-06T16:34:16.715Z,20.30
2022-09-06T16:36:44.428Z,19.80
2022-09-06T16:39:11.978Z,19.40
2022-09-06T16:41:41.168Z,18.60
2022-09-06T16:44:10.225Z,18.00
2022-09-06T16:46:40.259Z,17.50
2022-09-06T16:49:08.397Z,17.20
2022-09-06T16:51:36.287Z,16.90
2022-09-06T16:54:03.943Z,16.60
2022-09-06T16:56:34.934Z,16.40
2022-09-06T16:59:06.535Z,16.20
2022-09-06T17:01:35.333Z,16.00
2022-09-06T17:04:03.315Z,15.80
2022-09-06T17:06:32.692Z,15.50
2022-09-06T17:09:00.511Z,15.30
2022-09-06T17:11:28.706Z,15.20
2022-09-06T17:13:57.072Z,15.10
2022-09-06T17:16:44.117Z,14.90
2022-09-06T17:19:11.704Z,14.70
2022-09-06T17:21:40.183Z,14.60
2022-09-06T17:24:08.573Z,14.60
2022-09-06T17:26:38.350Z,14.50
2022-09-06T17:29:06.442Z,14.30
2022-09-06T17:31:34.544Z,14.20
2022-09-06T17:34:02.113Z,14.10
2022-09-06T17:36:31.852Z,14.00
2022-09-06T17:39:14.279Z,13.90
2022-09-06T17:41:46.175Z,13.80
2022-09-06T17:44:16.910Z,13.70
2022-09-06T17:47:02.837Z,13.70
2022-09-06T17:49:32.942Z,13.70
2022-09-06T17:52:00.470Z,13.60
2022-09-06T17:54:28.402Z,13.50
2022-09-06T17:56:56.027Z,13.50
2022-09-06T17:59:23.563Z,13.40
2022-09-06T18:01:51.055Z,13.30
2022-09-06T18:04:19.535Z,13.20
2022-09-06T18:06:47.675Z,13.20
2022-09-06T18:09:18.022Z,13.10
2022-09-06T18:11:48.521Z,13.00
2022-09-06T18:14:18.322Z,12.90
2022-09-06T18:17:09.178Z,12.90
2022-09-06T18:19:38.377Z,12.90
2022-09-06T18:22:05.881Z,12.80
2022-09-06T18:24:33.470Z,12.80
2022-09-06T18:27:02.948Z,12.70
2022-09-06T18:29:30.405Z,12.70
2022-09-06T18:31:58.029Z,12.70
2022-09-06T18:34:25.748Z,12.60
2022-09-06T18:36:53.449Z,12.50
2022-09-06T18:39:23.449Z,12.40
2022-09-06T18:42:00.172Z,12.50
2022-09-06T18:44:32.236Z,12.40
2022-09-06T18:47:05.805Z,12.40
2022-09-06T18:49:34.144Z,12.30
2022-09-06T18:52:03.923Z,12.30
2022-09-06T18:54:32.350Z,12.20
2022-09-06T18:57:00.111Z,12.10
2022-09-06T18:59:27.859Z,12.00
2022-09-06T19:01:55.575Z,12.00
2022-09-06T19:04:23.254Z,12.00
2022-09-06T19:06:50.894Z,11.90
2022-09-06T19:09:18.531Z,11.80
2022-09-06T19:11:49.328Z,11.80
2022-09-06T19:14:16.926Z,11.70
2022-09-06T19:16:45.510Z,11.70
2022-09-06T19:19:13.556Z,11.60
2022-09-06T19:21:42.518Z,11.60
2022-09-06T19:24:12.215Z,11.60
2022-09-06T19:26:42.035Z,11.60
2022-09-06T19:29:14.372Z,11.60
2022-09-06T19:31:42.302Z,11.60
2022-09-06T19:34:10.135Z,11.50
2022-09-06T19:36:37.657Z,11.40
2022-09-06T19:39:07.671Z,11.30
2022-09-06T19:41:38.208Z,11.30
2022-09-06T19:44:08.657Z,11.20
2022-09-06T19:46:37.664Z,11.20
2022-09-06T19:49:08.326Z,11.20
2022-09-06T19:51:37.116Z,11.10
2022-09-06T19:54:05.178Z,11.00
2022-09-06T19:56:34.918Z,11.00
2022-09-06T19:59:07.460Z,10.90
2022-09-06T20:01:36.250Z,10.80
2022-09-06T20:04:07.131Z,10.80
2022-09-06T20:06:35.601Z,10.70
2022-09-06T20:09:05.717Z,10.60
2022-09-06T20:11:35.034Z,10.50
2022-09-06T20:14:02.891Z,10.60
2022-09-06T20:16:30.787Z,10.60
2022-09-06T20:18:59.376Z,10.60
2022-09-06T20:21:28.490Z,10.50
2022-09-06T20:23:57.414Z,10.50
2022-09-06T20:26:26.490Z,10.40
2022-09-06T20:28:59.314Z,10.30
2022-09-06T20:31:29.081Z,10.30
2022-09-06T20:33:58.643Z,10.30
2022-09-06T20:36:26.550Z,10.30
2022-09-06T20:38:54.298Z,10.40
2022-09-06T20:41:24.311Z,10.40
2022-09-06T20:43:53.910Z,10.40
2022-09-06T20:46:24.021Z,10.40
2022-09-06T20:48:52.230Z,10.40
2022-09-06T20:51:22.023Z,10.40
2022-09-06T20:53:55.128Z,10.20
2022-09-06T20:56:25.088Z,10.20
2022-09-06T20:58:55.440Z,10.10
2022-09-06T21:01:25.269Z,10.10
2022-09-06T21:03:55.408Z,10.10
2022-09-06T21:06:25.081Z,10.00
2022-09-06T21:08:52.966Z,9.90
2022-09-06T21:11:21.660Z,9.80
2022-09-06T21:13:53.511Z,9.70
2022-09-06T21:16:24.717Z,9.70
2022-09-06T21:18:59.814Z,9.60
2022-09-06T21:21:29.032Z,9.60
2022-09-06T21:23:56.957Z,9.60
2022-09-06T21:26:24.467Z,9.50
2022-09-06T21:28:52.861Z,9.40
2022-09-06T21:31:28.559Z,9.50
2022-09-06T21:33:58.235Z,9.50
2022-09-06T21:36:31.352Z,9.50
2022-09-06T21:39:01.364Z,9.50
2022-09-06T21:41:29.766Z,9.50
2022-09-06T21:43:59.750Z,9.40
2022-09-06T21:46:32.858Z,9.30
2022-09-06T21:49:07.459Z,9.30
2022-09-06T21:51:35.767Z,9.30
2022-09-06T21:54:05.620Z,9.30
2022-09-06T21:56:35.192Z,9.30
2022-09-06T21:59:03.715Z,9.20
2022-09-06T22:01:33.581Z,9.20
2022-09-06T22:04:02.478Z,9.20
2022-09-06T22:06:32.068Z,9.20
2022-09-06T22:09:01.657Z,9.10
2022-09-06T22:11:33.217Z,9.10
2022-09-06T22:14:03.247Z,9.00
2022-09-06T22:16:33.108Z,8.90
2022-09-06T22:19:00.687Z,9.00
2022-09-06T22:21:28.240Z,8.90
2022-09-06T22:23:58.290Z,8.90
2022-09-06T22:26:28.065Z,8.90
2022-09-06T22:29:00.537Z,8.80
2022-09-06T22:31:29.864Z,8.80
2022-09-06T22:33:57.867Z,8.80
2022-09-06T22:36:25.635Z,8.70
2022-09-06T22:38:57.596Z,8.60
2022-09-06T22:41:27.338Z,8.70
2022-09-06T22:43:55.192Z,8.70
2022-09-06T22:46:23.319Z,8.60
2022-09-06T22:48:51.074Z,8.60
2022-09-06T22:51:18.627Z,8.50
2022-09-06T22:53:46.203Z,8.50
2022-09-06T22:56:13.753Z,8.50
2022-09-06T22:58:41.271Z,8.50
2022-09-06T23:01:13.408Z,8.50
2022-09-06T23:03:42.421Z,8.50
2022-09-06T23:06:10.592Z,8.50
2022-09-06T23:08:40.081Z,8.50
2022-09-06T23:11:11.823Z,8.50
2022-09-06T23:13:43.872Z,8.50
2022-09-06T23:16:15.166Z,8.50
2022-09-06T23:18:42.946Z,8.50
2022-09-06T23:21:16.093Z,8.40
2022-09-06T23:23:44.030Z,8.40
2022-09-06T23:26:21.991Z,8.40
2022-09-06T23:28:56.890Z,8.30
2022-09-06T23:31:32.681Z,8.40
2022-09-06T23:34:01.737Z,8.40
2022-09-06T23:36:29.585Z,8.40
2022-09-06T23:38:57.381Z,8.30
2022-09-06T23:41:25.254Z,8.20
2022-09-06T23:43:52.761Z,8.20
2022-09-06T23:46:20.593Z,8.30
2022-09-06T23:48:48.095Z,8.20
2022-09-06T23:51:15.569Z,8.10
2022-09-06T23:53:43.154Z,8.00
2022-09-06T23:56:10.734Z,7.90
2022-09-06T23:58:38.882Z,7.90
